sensor_id;sensor_type;location;lat;lon;timestamp;temperature;humidity
71396;DHT22;59888;55.814;37.132;2022-11-03T00:01:48;2.79;59.17
71396;DHT22;59888;55.814;37.132;2022-11-03T00:04:18;2.76;59.23
71396;DHT22;59888;55.814;37.132;2022-11-03T00:06:48;2.73;59.20
71396;DHT22;59888;55.814;37.132;2022-11-03T00:09:15;2.74;59.17
71396;DHT22;59888;55.814;37.132;2022-11-03T00:11:43;2.79;59.22
71396;DHT22;59888;55.814;37.132;2022-11-03T00:14:09;2.81;59.14
71396;DHT22;59888;55.814;37.132;2022-11-03T00:16:36;2.83;59.13
71396;DHT22;59888;55.814;37.132;2022-11-03T00:19:03;2.88;59.16
71396;DHT22;59888;55.814;37.132;2022-11-03T00:21:29;2.93;59.06
71396;DHT22;59888;55.814;37.132;2022-11-03T00:23:55;2.95;58.97
71396;DHT22;59888;55.814;37.132;2022-11-03T00:26:23;2.95;58.82
71396;DHT22;59888;55.814;37.132;2022-11-03T00:28:51;2.99;58.80
71396;DHT22;59888;55.814;37.132;2022-11-03T00:31:28;3.00;58.72
71396;DHT22;59888;55.814;37.132;2022-11-03T00:33:55;2.98;58.74
71396;DHT22;59888;55.814;37.132;2022-11-03T00:36:29;2.97;58.66
71396;DHT22;59888;55.814;37.132;2022-11-03T00:38:55;2.95;58.79
71396;DHT22;59888;55.814;37.132;2022-11-03T00:41:23;2.91;58.65
71396;DHT22;59888;55.814;37.132;2022-11-03T00:43:49;2.82;58.80
71396;DHT22;59888;55.814;37.132;2022-11-03T00:46:16;2.73;58.84
71396;DHT22;59888;55.814;37.132;2022-11-03T00:48:42;2.68;58.93
71396;DHT22;59888;55.814;37.132;2022-11-03T00:51:13;2.58;58.99
71396;DHT22;59888;55.814;37.132;2022-11-03T00:56:14;2.49;59.25
71396;DHT22;59888;55.814;37.132;2022-11-03T00:58:40;2.44;59.26
71396;DHT22;59888;55.814;37.132;2022-11-03T01:01:10;2.40;59.31
71396;DHT22;59888;55.814;37.132;2022-11-03T01:03:38;2.31;59.48
71396;DHT22;59888;55.814;37.132;2022-11-03T01:06:06;2.28;59.61
71396;DHT22;59888;55.814;37.132;2022-11-03T01:08:51;2.27;59.62
71396;DHT22;59888;55.814;37.132;2022-11-03T01:11:19;2.30;59.62
71396;DHT22;59888;55.814;37.132;2022-11-03T01:14:05;2.29;59.54
71396;DHT22;59888;55.814;37.132;2022-11-03T01:16:31;2.35;59.55
71396;DHT22;59888;55.814;37.132;2022-11-03T01:18:57;2.42;59.54
71396;DHT22;59888;55.814;37.132;2022-11-03T01:21:28;2.53;59.39
71396;DHT22;59888;55.814;37.132;2022-11-03T01:23:54;2.61;59.31
71396;DHT22;59888;55.814;37.132;2022-11-03T01:26:20;2.59;59.12
71396;DHT22;59888;55.814;37.132;2022-11-03T01:28:47;2.46;59.24
71396;DHT22;59888;55.814;37.132;2022-11-03T01:31:21;2.40;59.36
71396;DHT22;59888;55.814;37.132;2022-11-03T01:33:48;2.44;59.51
71396;DHT22;59888;55.814;37.132;2022-11-03T01:36:14;2.39;59.41
71396;DHT22;59888;55.814;37.132;2022-11-03T01:38:41;2.41;59.39
71396;DHT22;59888;55.814;37.132;2022-11-03T01:41:10;2.52;59.36
71396;DHT22;59888;55.814;37.132;2022-11-03T01:43:38;2.56;59.26
71396;DHT22;59888;55.814;37.132;2022-11-03T01:46:23;2.59;59.17
71396;DHT22;59888;55.814;37.132;2022-11-03T01:48:58;2.62;59.24
71396;DHT22;59888;55.814;37.132;2022-11-03T01:51:29;2.67;59.15
71396;DHT22;59888;55.814;37.132;2022-11-03T01:54:00;2.65;58.92
71396;DHT22;59888;55.814;37.132;2022-11-03T01:56:31;2.64;58.97
71396;DHT22;59888;55.814;37.132;2022-11-03T01:58:58;2.62;58.96
71396;DHT22;59888;55.814;37.132;2022-11-03T02:01:24;2.57;58.97
71396;DHT22;59888;55.814;37.132;2022-11-03T02:03:55;2.56;59.05
71396;DHT22;59888;55.814;37.132;2022-11-03T02:06:22;2.53;59.08
71396;DHT22;59888;55.814;37.132;2022-11-03T02:08:53;2.50;59.08
71396;DHT22;59888;55.814;37.132;2022-11-03T02:11:21;2.47;59.12
71396;DHT22;59888;55.814;37.132;2022-11-03T02:14:10;2.41;59.16
71396;DHT22;59888;55.814;37.132;2022-11-03T02:16:37;2.40;59.27
71396;DHT22;59888;55.814;37.132;2022-11-03T02:19:04;2.43;59.30
71396;DHT22;59888;55.814;37.132;2022-11-03T02:21:34;2.46;59.25
71396;DHT22;59888;55.814;37.132;2022-11-03T02:26:41;2.37;59.28
71396;DHT22;59888;55.814;37.132;2022-11-03T02:29:08;2.31;59.27
71396;DHT22;59888;55.814;37.132;2022-11-03T02:31:40;2.30;59.41
71396;DHT22;59888;55.814;37.132;2022-11-03T02:34:13;2.31;59.42
71396;DHT22;59888;55.814;37.132;2022-11-03T02:36:52;2.27;59.46
71396;DHT22;59888;55.814;37.132;2022-11-03T02:39:37;2.32;59.44
71396;DHT22;59888;55.814;37.132;2022-11-03T02:42:06;2.39;59.35
71396;DHT22;59888;55.814;37.132;2022-11-03T02:44:36;2.45;59.29
71396;DHT22;59888;55.814;37.132;2022-11-03T02:47:05;2.45;59.29
71396;DHT22;59888;55.814;37.132;2022-11-03T02:49:55;2.45;59.43
71396;DHT22;59888;55.814;37.132;2022-11-03T02:58:16;2.36;59.19
71396;DHT22;59888;55.814;37.132;2022-11-03T03:00:52;2.35;59.16
71396;DHT22;59888;55.814;37.132;2022-11-03T03:03:27;2.31;59.13
71396;DHT22;59888;55.814;37.132;2022-11-03T03:05:59;2.27;59.29
71396;DHT22;59888;55.814;37.132;2022-11-03T03:08:28;2.30;59.36
71396;DHT22;59888;55.814;37.132;2022-11-03T03:11:01;2.35;59.33
71396;DHT22;59888;55.814;37.132;2022-11-03T03:13:27;2.39;59.41
71396;DHT22;59888;55.814;37.132;2022-11-03T03:18:54;2.40;59.32
71396;DHT22;59888;55.814;37.132;2022-11-03T03:21:30;2.30;59.42
71396;DHT22;59888;55.814;37.132;2022-11-03T03:24:02;2.30;59.51
71396;DHT22;59888;55.814;37.132;2022-11-03T03:26:38;2.35;59.46
71396;DHT22;59888;55.814;37.132;2022-11-03T03:29:16;2.35;59.35
71396;DHT22;59888;55.814;37.132;2022-11-03T03:31:48;2.29;59.39
71396;DHT22;59888;55.814;37.132;2022-11-03T03:34:17;2.26;59.49
71396;DHT22;59888;55.814;37.132;2022-11-03T03:36:46;2.27;59.57
71396;DHT22;59888;55.814;37.132;2022-11-03T03:39:14;2.28;59.51
71396;DHT22;59888;55.814;37.132;2022-11-03T03:41:44;2.26;59.61
71396;DHT22;59888;55.814;37.132;2022-11-03T03:44:12;2.28;59.67
71396;DHT22;59888;55.814;37.132;2022-11-03T03:47:06;2.24;59.77
71396;DHT22;59888;55.814;37.132;2022-11-03T03:49:34;2.23;59.81
71396;DHT22;59888;55.814;37.132;2022-11-03T03:52:00;2.21;59.73
71396;DHT22;59888;55.814;37.132;2022-11-03T03:54:26;2.15;59.75
71396;DHT22;59888;55.814;37.132;2022-11-03T03:57:02;2.07;60.06
71396;DHT22;59888;55.814;37.132;2022-11-03T03:59:29;2.06;60.09
71396;DHT22;59888;55.814;37.132;2022-11-03T04:01:55;2.06;60.08
71396;DHT22;59888;55.814;37.132;2022-11-03T04:04:21;2.07;60.17
71396;DHT22;59888;55.814;37.132;2022-11-03T04:06:47;2.05;60.12
71396;DHT22;59888;55.814;37.132;2022-11-03T04:09:13;1.96;60.18
71396;DHT22;59888;55.814;37.132;2022-11-03T04:11:39;1.96;60.10
71396;DHT22;59888;55.814;37.132;2022-11-03T04:14:24;1.95;60.23
71396;DHT22;59888;55.814;37.132;2022-11-03T04:17:18;2.00;60.13
71396;DHT22;59888;55.814;37.132;2022-11-03T04:20:09;2.02;60.06
71396;DHT22;59888;55.814;37.132;2022-11-03T04:22:55;2.02;60.01
71396;DHT22;59888;55.814;37.132;2022-11-03T04:25:20;2.00;60.04
71396;DHT22;59888;55.814;37.132;2022-11-03T04:27:46;1.99;60.02
71396;DHT22;59888;55.814;37.132;2022-11-03T04:30:16;1.97;60.10
71396;DHT22;59888;55.814;37.132;2022-11-03T04:32:44;2.02;60.13
71396;DHT22;59888;55.814;37.132;2022-11-03T04:35:18;2.03;60.18
71396;DHT22;59888;55.814;37.132;2022-11-03T04:37:49;2.09;60.10
71396;DHT22;59888;55.814;37.132;2022-11-03T04:40:16;2.13;60.05
71396;DHT22;59888;55.814;37.132;2022-11-03T04:42:43;2.22;59.87
71396;DHT22;59888;55.814;37.132;2022-11-03T04:45:32;2.29;59.81
71396;DHT22;59888;55.814;37.132;2022-11-03T04:48:00;2.29;59.64
71396;DHT22;59888;55.814;37.132;2022-11-03T04:50:30;2.28;59.60
71396;DHT22;59888;55.814;37.132;2022-11-03T04:52:57;2.27;59.70
71396;DHT22;59888;55.814;37.132;2022-11-03T04:55:24;2.29;59.68
71396;DHT22;59888;55.814;37.132;2022-11-03T04:57:56;2.31;59.73
71396;DHT22;59888;55.814;37.132;2022-11-03T05:00:23;2.37;59.69
71396;DHT22;59888;55.814;37.132;2022-11-03T05:02:50;2.41;59.66
71396;DHT22;59888;55.814;37.132;2022-11-03T05:05:17;2.40;59.50
71396;DHT22;59888;55.814;37.132;2022-11-03T05:07:44;2.41;59.59
71396;DHT22;59888;55.814;37.132;2022-11-03T05:10:15;2.50;59.49
71396;DHT22;59888;55.814;37.132;2022-11-03T05:12:47;2.54;59.41
71396;DHT22;59888;55.814;37.132;2022-11-03T05:15:35;2.53;59.37
71396;DHT22;59888;55.814;37.132;2022-11-03T05:18:13;2.54;59.35
71396;DHT22;59888;55.814;37.132;2022-11-03T05:20:46;2.59;59.36
71396;DHT22;59888;55.814;37.132;2022-11-03T05:23:17;2.64;59.32
71396;DHT22;59888;55.814;37.132;2022-11-03T05:25:45;2.64;59.14
71396;DHT22;59888;55.814;37.132;2022-11-03T05:28:21;2.55;59.02
71396;DHT22;59888;55.814;37.132;2022-11-03T05:30:49;2.49;59.20
71396;DHT22;59888;55.814;37.132;2022-11-03T05:33:31;2.49;59.29
71396;DHT22;59888;55.814;37.132;2022-11-03T05:36:07;2.52;59.22
71396;DHT22;59888;55.814;37.132;2022-11-03T05:38:36;2.50;59.17
71396;DHT22;59888;55.814;37.132;2022-11-03T05:41:01;2.40;59.16
71396;DHT22;59888;55.814;37.132;2022-11-03T05:43:28;2.35;59.21
71396;DHT22;59888;55.814;37.132;2022-11-03T05:45:57;2.42;59.21
71396;DHT22;59888;55.814;37.132;2022-11-03T05:48:30;2.38;59.20
71396;DHT22;59888;55.814;37.132;2022-11-03T05:50:58;2.36;59.30
71396;DHT22;59888;55.814;37.132;2022-11-03T05:53:35;2.32;59.36
71396;DHT22;59888;55.814;37.132;2022-11-03T05:56:12;2.28;59.21
71396;DHT22;59888;55.814;37.132;2022-11-03T05:58:42;2.20;59.38
71396;DHT22;59888;55.814;37.132;2022-11-03T06:01:35;2.17;59.31
71396;DHT22;59888;55.814;37.132;2022-11-03T06:04:13;2.09;59.37
71396;DHT22;59888;55.814;37.132;2022-11-03T06:06:40;1.96;59.50
71396;DHT22;59888;55.814;37.132;2022-11-03T06:09:16;1.98;59.67
71396;DHT22;59888;55.814;37.132;2022-11-03T06:11:43;2.00;59.64
71396;DHT22;59888;55.814;37.132;2022-11-03T06:14:30;1.97;59.55
71396;DHT22;59888;55.814;37.132;2022-11-03T06:17:05;1.88;59.70
71396;DHT22;59888;55.814;37.132;2022-11-03T06:19:34;1.92;59.68
71396;DHT22;59888;55.814;37.132;2022-11-03T06:22:24;1.90;59.69
71396;DHT22;59888;55.814;37.132;2022-11-03T06:24:52;1.85;59.72
71396;DHT22;59888;55.814;37.132;2022-11-03T06:27:22;1.85;59.73
71396;DHT22;59888;55.814;37.132;2022-11-03T06:29:55;1.91;59.81
71396;DHT22;59888;55.814;37.132;2022-11-03T06:32:26;2.06;59.84
71396;DHT22;59888;55.814;37.132;2022-11-03T06:34:55;2.25;59.59
71396;DHT22;59888;55.814;37.132;2022-11-03T06:37:24;2.36;59.53
71396;DHT22;59888;55.814;37.132;2022-11-03T06:39:57;2.46;59.21
71396;DHT22;59888;55.814;37.132;2022-11-03T06:42:25;2.49;59.12
71396;DHT22;59888;55.814;37.132;2022-11-03T06:44:53;2.47;59.09
71396;DHT22;59888;55.814;37.132;2022-11-03T06:47:20;2.53;59.09
71396;DHT22;59888;55.814;37.132;2022-11-03T06:49:52;2.61;58.99
71396;DHT22;59888;55.814;37.132;2022-11-03T06:52:36;2.69;58.82
71396;DHT22;59888;55.814;37.132;2022-11-03T06:55:13;2.72;58.70
71396;DHT22;59888;55.814;37.132;2022-11-03T06:57:45;2.71;58.69
71396;DHT22;59888;55.814;37.132;2022-11-03T07:00:18;2.68;58.66
71396;DHT22;59888;55.814;37.132;2022-11-03T07:05:30;2.74;58.56
71396;DHT22;59888;55.814;37.132;2022-11-03T07:07:59;2.65;58.35
71396;DHT22;59888;55.814;37.132;2022-11-03T07:10:29;2.47;58.47
71396;DHT22;59888;55.814;37.132;2022-11-03T07:12:58;2.29;58.77
71396;DHT22;59888;55.814;37.132;2022-11-03T07:15:30;2.23;58.96
71396;DHT22;59888;55.814;37.132;2022-11-03T07:17:58;2.25;59.00
71396;DHT22;59888;55.814;37.132;2022-11-03T07:20:24;2.20;58.96
71396;DHT22;59888;55.814;37.132;2022-11-03T07:22:50;2.15;59.03
71396;DHT22;59888;55.814;37.132;2022-11-03T07:25:19;1.96;59.27
71396;DHT22;59888;55.814;37.132;2022-11-03T07:27:50;1.93;59.46
71396;DHT22;59888;55.814;37.132;2022-11-03T07:30:26;1.97;59.54
71396;DHT22;59888;55.814;37.132;2022-11-03T07:33:26;2.00;59.41
71396;DHT22;59888;55.814;37.132;2022-11-03T07:35:53;1.99;59.44
71396;DHT22;59888;55.814;37.132;2022-11-03T07:38:25;1.98;59.53
71396;DHT22;59888;55.814;37.132;2022-11-03T07:40:52;2.06;59.57
71396;DHT22;59888;55.814;37.132;2022-11-03T07:43:24;2.21;59.37
71396;DHT22;59888;55.814;37.132;2022-11-03T07:46:04;2.26;59.33
71396;DHT22;59888;55.814;37.132;2022-11-03T07:48:41;2.34;59.09
71396;DHT22;59888;55.814;37.132;2022-11-03T07:54:15;2.42;59.02
71396;DHT22;59888;55.814;37.132;2022-11-03T07:56:54;2.42;58.74
71396;DHT22;59888;55.814;37.132;2022-11-03T07:59:21;2.44;58.93
71396;DHT22;59888;55.814;37.132;2022-11-03T08:01:53;2.54;58.85
71396;DHT22;59888;55.814;37.132;2022-11-03T08:04:24;2.55;58.86
71396;DHT22;59888;55.814;37.132;2022-11-03T08:06:50;2.59;58.51
71396;DHT22;59888;55.814;37.132;2022-11-03T08:09:17;2.56;58.64
71396;DHT22;59888;55.814;37.132;2022-11-03T08:11:43;2.52;58.45
71396;DHT22;59888;55.814;37.132;2022-11-03T08:14:09;2.46;58.57
71396;DHT22;59888;55.814;37.132;2022-11-03T08:16:36;2.46;58.56
71396;DHT22;59888;55.814;37.132;2022-11-03T08:19:02;2.49;58.60
71396;DHT22;59888;55.814;37.132;2022-11-03T08:21:27;2.54;58.67
71396;DHT22;59888;55.814;37.132;2022-11-03T08:23:53;2.69;58.53
71396;DHT22;59888;55.814;37.132;2022-11-03T08:26:20;2.72;58.41
71396;DHT22;59888;55.814;37.132;2022-11-03T08:28:46;2.76;58.31
71396;DHT22;59888;55.814;37.132;2022-11-03T08:31:12;2.78;58.25
71396;DHT22;59888;55.814;37.132;2022-11-03T08:33:38;2.80;58.22
71396;DHT22;59888;55.814;37.132;2022-11-03T08:36:04;2.88;58.17
71396;DHT22;59888;55.814;37.132;2022-11-03T08:38:30;2.94;58.03
71396;DHT22;59888;55.814;37.132;2022-11-03T08:40:56;2.94;58.00
71396;DHT22;59888;55.814;37.132;2022-11-03T08:43:26;2.97;57.58
71396;DHT22;59888;55.814;37.132;2022-11-03T08:45:53;2.99;57.96
71396;DHT22;59888;55.814;37.132;2022-11-03T08:48:24;3.05;57.85
71396;DHT22;59888;55.814;37.132;2022-11-03T08:50:52;3.05;57.58
71396;DHT22;59888;55.814;37.132;2022-11-03T08:53:23;2.95;57.51
71396;DHT22;59888;55.814;37.132;2022-11-03T08:55:52;2.87;57.65
71396;DHT22;59888;55.814;37.132;2022-11-03T08:58:19;2.86;57.77
71396;DHT22;59888;55.814;37.132;2022-11-03T09:00:48;2.82;57.73
71396;DHT22;59888;55.814;37.132;2022-11-03T09:03:16;2.85;57.67
71396;DHT22;59888;55.814;37.132;2022-11-03T09:05:43;2.81;57.58
71396;DHT22;59888;55.814;37.132;2022-11-03T09:08:09;2.76;57.46
71396;DHT22;59888;55.814;37.132;2022-11-03T09:10:36;2.76;57.73
71396;DHT22;59888;55.814;37.132;2022-11-03T09:13:03;2.85;57.59
71396;DHT22;59888;55.814;37.132;2022-11-03T09:15:30;2.84;57.30
71396;DHT22;59888;55.814;37.132;2022-11-03T09:17:58;2.85;57.56
71396;DHT22;59888;55.814;37.132;2022-11-03T09:20:25;2.85;57.58
71396;DHT22;59888;55.814;37.132;2022-11-03T09:22:52;2.85;57.67
71396;DHT22;59888;55.814;37.132;2022-11-03T09:25:19;2.86;57.56
71396;DHT22;59888;55.814;37.132;2022-11-03T09:27:46;2.89;57.62
71396;DHT22;59888;55.814;37.132;2022-11-03T09:30:12;2.95;57.57
71396;DHT22;59888;55.814;37.132;2022-11-03T09:32:39;2.97;57.41
71396;DHT22;59888;55.814;37.132;2022-11-03T09:35:05;2.93;57.60
71396;DHT22;59888;55.814;37.132;2022-11-03T09:37:33;2.96;57.51
71396;DHT22;59888;55.814;37.132;2022-11-03T09:39:59;2.90;57.55
71396;DHT22;59888;55.814;37.132;2022-11-03T09:42:25;2.89;57.55
71396;DHT22;59888;55.814;37.132;2022-11-03T09:44:55;2.81;57.44
71396;DHT22;59888;55.814;37.132;2022-11-03T09:47:48;2.78;57.29
71396;DHT22;59888;55.814;37.132;2022-11-03T09:50:16;2.75;57.56
71396;DHT22;59888;55.814;37.132;2022-11-03T09:52:49;2.70;57.45
71396;DHT22;59888;55.814;37.132;2022-11-03T09:55:29;2.70;57.58
71396;DHT22;59888;55.814;37.132;2022-11-03T09:58:00;2.73;57.74
71396;DHT22;59888;55.814;37.132;2022-11-03T10:00:27;2.80;57.68
71396;DHT22;59888;55.814;37.132;2022-11-03T10:02:56;2.76;57.45
71396;DHT22;59888;55.814;37.132;2022-11-03T10:05:25;2.70;57.35
71396;DHT22;59888;55.814;37.132;2022-11-03T10:08:03;2.64;57.48
71396;DHT22;59888;55.814;37.132;2022-11-03T10:10:32;2.64;57.69
71396;DHT22;59888;55.814;37.132;2022-11-03T10:13:00;2.78;57.81
71396;DHT22;59888;55.814;37.132;2022-11-03T10:15:27;2.95;57.66
71396;DHT22;59888;55.814;37.132;2022-11-03T10:17:53;3.08;57.38
71396;DHT22;59888;55.814;37.132;2022-11-03T10:20:21;3.17;57.28
71396;DHT22;59888;55.814;37.132;2022-11-03T10:22:50;3.18;57.03
71396;DHT22;59888;55.814;37.132;2022-11-03T10:28:23;3.03;56.90
71396;DHT22;59888;55.814;37.132;2022-11-03T10:31:00;2.95;57.23
71396;DHT22;59888;55.814;37.132;2022-11-03T10:35:57;3.00;57.32
71396;DHT22;59888;55.814;37.132;2022-11-03T10:38:28;3.04;57.30
71396;DHT22;59888;55.814;37.132;2022-11-03T10:41:16;3.15;57.17
71396;DHT22;59888;55.814;37.132;2022-11-03T10:43:44;3.10;56.84
71396;DHT22;59888;55.814;37.132;2022-11-03T10:46:16;3.01;57.02
71396;DHT22;59888;55.814;37.132;2022-11-03T10:48:43;2.79;57.09
71396;DHT22;59888;55.814;37.132;2022-11-03T10:51:20;2.69;57.18
71396;DHT22;59888;55.814;37.132;2022-11-03T10:53:46;2.57;57.35
71396;DHT22;59888;55.814;37.132;2022-11-03T10:56:11;2.58;57.71
71396;DHT22;59888;55.814;37.132;2022-11-03T10:58:37;2.56;57.62
71396;DHT22;59888;55.814;37.132;2022-11-03T11:01:04;2.47;57.67
71396;DHT22;59888;55.814;37.132;2022-11-03T11:03:31;2.43;57.87
71396;DHT22;59888;55.814;37.132;2022-11-03T11:05:57;2.44;57.94
71396;DHT22;59888;55.814;37.132;2022-11-03T11:08:23;2.47;58.01
71396;DHT22;59888;55.814;37.132;2022-11-03T11:10:49;2.46;57.96
71396;DHT22;59888;55.814;37.132;2022-11-03T11:15:48;2.47;58.06
71396;DHT22;59888;55.814;37.132;2022-11-03T11:21:00;2.34;58.22
71396;DHT22;59888;55.814;37.132;2022-11-03T11:31:42;2.47;58.32
71396;DHT22;59888;55.814;37.132;2022-11-03T11:36:44;2.52;58.21
71396;DHT22;59888;55.814;37.132;2022-11-03T11:52:43;2.69;57.67
71396;DHT22;59888;55.814;37.132;2022-11-03T11:55:30;2.58;57.90
71396;DHT22;59888;55.814;37.132;2022-11-03T11:57:58;2.54;58.02
71396;DHT22;59888;55.814;37.132;2022-11-03T12:00:28;2.46;57.92
71396;DHT22;59888;55.814;37.132;2022-11-03T12:02:54;2.43;58.18
71396;DHT22;59888;55.814;37.132;2022-11-03T12:05:23;2.46;58.27
71396;DHT22;59888;55.814;37.132;2022-11-03T12:07:51;2.59;58.26
71396;DHT22;59888;55.814;37.132;2022-11-03T12:10:19;2.66;58.13
71396;DHT22;59888;55.814;37.132;2022-11-03T12:12:45;2.67;58.09
71396;DHT22;59888;55.814;37.132;2022-11-03T12:18:32;2.68;58.05
71396;DHT22;59888;55.814;37.132;2022-11-03T12:21:04;2.70;58.03
71396;DHT22;59888;55.814;37.132;2022-11-03T12:26:01;2.74;58.05
71396;DHT22;59888;55.814;37.132;2022-11-03T12:28:34;2.75;58.17
71396;DHT22;59888;55.814;37.132;2022-11-03T12:31:01;2.79;58.03
71396;DHT22;59888;55.814;37.132;2022-11-03T12:33:27;2.83;58.09
71396;DHT22;59888;55.814;37.132;2022-11-03T12:35:53;2.88;58.07
71396;DHT22;59888;55.814;37.132;2022-11-03T12:38:19;2.85;58.00
71396;DHT22;59888;55.814;37.132;2022-11-03T12:40:45;2.91;58.13
71396;DHT22;59888;55.814;37.132;2022-11-03T12:43:11;2.94;57.89
71396;DHT22;59888;55.814;37.132;2022-11-03T12:45:36;2.89;57.92
71396;DHT22;59888;55.814;37.132;2022-11-03T12:48:02;2.82;58.03
71396;DHT22;59888;55.814;37.132;2022-11-03T12:50:29;2.72;58.09
71396;DHT22;59888;55.814;37.132;2022-11-03T12:52:55;2.58;58.24
71396;DHT22;59888;55.814;37.132;2022-11-03T12:55:21;2.52;58.45
71396;DHT22;59888;55.814;37.132;2022-11-03T12:57:46;2.52;58.48
71396;DHT22;59888;55.814;37.132;2022-11-03T13:00:13;2.54;58.51
71396;DHT22;59888;55.814;37.132;2022-11-03T13:02:38;2.52;58.47
71396;DHT22;59888;55.814;37.132;2022-11-03T13:05:05;2.38;58.68
71396;DHT22;59888;55.814;37.132;2022-11-03T13:07:31;2.34;58.81
71396;DHT22;59888;55.814;37.132;2022-11-03T13:09:57;2.32;58.96
71396;DHT22;59888;55.814;37.132;2022-11-03T13:12:23;2.30;59.05
71396;DHT22;59888;55.814;37.132;2022-11-03T13:15:02;2.32;59.10
71396;DHT22;59888;55.814;37.132;2022-11-03T13:17:29;2.35;59.19
71396;DHT22;59888;55.814;37.132;2022-11-03T13:19:55;2.44;59.09
71396;DHT22;59888;55.814;37.132;2022-11-03T13:22:20;2.44;59.00
71396;DHT22;59888;55.814;37.132;2022-11-03T13:24:47;2.50;58.99
71396;DHT22;59888;55.814;37.132;2022-11-03T13:27:12;2.53;58.83
71396;DHT22;59888;55.814;37.132;2022-11-03T13:29:38;2.52;58.84
71396;DHT22;59888;55.814;37.132;2022-11-03T13:32:05;2.54;58.83
71396;DHT22;59888;55.814;37.132;2022-11-03T13:34:31;2.62;58.74
71396;DHT22;59888;55.814;37.132;2022-11-03T13:36:56;2.62;58.67
71396;DHT22;59888;55.814;37.132;2022-11-03T13:39:23;2.52;58.65
71396;DHT22;59888;55.814;37.132;2022-11-03T13:41:49;2.42;58.82
71396;DHT22;59888;55.814;37.132;2022-11-03T13:44:15;2.36;58.93
71396;DHT22;59888;55.814;37.132;2022-11-03T13:46:42;2.24;59.09
71396;DHT22;59888;55.814;37.132;2022-11-03T13:49:08;2.20;59.38
71396;DHT22;59888;55.814;37.132;2022-11-03T13:51:33;2.23;59.43
71396;DHT22;59888;55.814;37.132;2022-11-03T13:53:59;2.32;59.44
71396;DHT22;59888;55.814;37.132;2022-11-03T13:56:25;2.40;59.31
71396;DHT22;59888;55.814;37.132;2022-11-03T13:58:51;2.45;59.17
71396;DHT22;59888;55.814;37.132;2022-11-03T14:01:17;2.45;59.23
71396;DHT22;59888;55.814;37.132;2022-11-03T14:03:43;2.50;59.20
71396;DHT22;59888;55.814;37.132;2022-11-03T14:06:08;2.53;59.16
71396;DHT22;59888;55.814;37.132;2022-11-03T14:08:34;2.57;59.16
71396;DHT22;59888;55.814;37.132;2022-11-03T14:11:00;2.64;59.06
71396;DHT22;59888;55.814;37.132;2022-11-03T14:13:48;2.68;59.08
71396;DHT22;59888;55.814;37.132;2022-11-03T14:16:14;2.78;59.01
71396;DHT22;59888;55.814;37.132;2022-11-03T14:18:40;2.80;58.83
71396;DHT22;59888;55.814;37.132;2022-11-03T14:21:06;2.78;58.79
71396;DHT22;59888;55.814;37.132;2022-11-03T14:23:32;2.80;58.82
71396;DHT22;59888;55.814;37.132;2022-11-03T14:25:58;2.80;58.84
71396;DHT22;59888;55.814;37.132;2022-11-03T14:28:23;2.83;58.80
71396;DHT22;59888;55.814;37.132;2022-11-03T14:30:49;2.88;58.71
71396;DHT22;59888;55.814;37.132;2022-11-03T14:33:15;2.90;58.66
71396;DHT22;59888;55.814;37.132;2022-11-03T14:35:41;2.96;58.61
71396;DHT22;59888;55.814;37.132;2022-11-03T14:38:07;2.97;58.56
71396;DHT22;59888;55.814;37.132;2022-11-03T14:40:32;2.94;58.54
71396;DHT22;59888;55.814;37.132;2022-11-03T14:43:17;2.99;58.51
71396;DHT22;59888;55.814;37.132;2022-11-03T14:45:42;3.01;58.52
71396;DHT22;59888;55.814;37.132;2022-11-03T14:48:09;3.08;58.40
71396;DHT22;59888;55.814;37.132;2022-11-03T14:50:34;3.10;58.17
71396;DHT22;59888;55.814;37.132;2022-11-03T14:53:01;3.05;58.28
71396;DHT22;59888;55.814;37.132;2022-11-03T14:55:27;3.08;58.27
71396;DHT22;59888;55.814;37.132;2022-11-03T14:57:53;3.06;58.29
71396;DHT22;59888;55.814;37.132;2022-11-03T15:00:19;3.03;58.25
71396;DHT22;59888;55.814;37.132;2022-11-03T15:02:44;2.97;58.21
71396;DHT22;59888;55.814;37.132;2022-11-03T15:05:10;2.89;58.38
71396;DHT22;59888;55.814;37.132;2022-11-03T15:07:56;2.86;58.41
71396;DHT22;59888;55.814;37.132;2022-11-03T15:10:22;2.82;58.48
71396;DHT22;59888;55.814;37.132;2022-11-03T15:12:48;2.82;58.52
71396;DHT22;59888;55.814;37.132;2022-11-03T15:15:13;2.83;58.56
71396;DHT22;59888;55.814;37.132;2022-11-03T15:17:42;2.82;58.38
71396;DHT22;59888;55.814;37.132;2022-11-03T15:20:08;2.74;58.55
71396;DHT22;59888;55.814;37.132;2022-11-03T15:22:34;2.73;58.67
71396;DHT22;59888;55.814;37.132;2022-11-03T15:25:00;2.65;58.61
71396;DHT22;59888;55.814;37.132;2022-11-03T15:27:26;2.54;58.83
71396;DHT22;59888;55.814;37.132;2022-11-03T15:29:51;2.52;58.87
71396;DHT22;59888;55.814;37.132;2022-11-03T15:32:17;2.52;58.96
71396;DHT22;59888;55.814;37.132;2022-11-03T15:34:43;2.50;59.01
71396;DHT22;59888;55.814;37.132;2022-11-03T15:37:09;2.50;59.09
71396;DHT22;59888;55.814;37.132;2022-11-03T15:39:35;2.50;59.13
71396;DHT22;59888;55.814;37.132;2022-11-03T15:42:01;2.50;59.19
71396;DHT22;59888;55.814;37.132;2022-11-03T15:44:26;2.55;59.10
71396;DHT22;59888;55.814;37.132;2022-11-03T15:46:52;2.50;59.12
71396;DHT22;59888;55.814;37.132;2022-11-03T15:49:18;2.49;59.10
71396;DHT22;59888;55.814;37.132;2022-11-03T15:51:44;2.44;59.25
71396;DHT22;59888;55.814;37.132;2022-11-03T15:54:09;2.47;59.13
71396;DHT22;59888;55.814;37.132;2022-11-03T15:56:35;2.42;59.16
71396;DHT22;59888;55.814;37.132;2022-11-03T15:59:01;2.41;59.19
71396;DHT22;59888;55.814;37.132;2022-11-03T16:01:27;2.37;59.23
71396;DHT22;59888;55.814;37.132;2022-11-03T16:03:53;2.30;59.28
71396;DHT22;59888;55.814;37.132;2022-11-03T16:06:19;2.29;59.29
71396;DHT22;59888;55.814;37.132;2022-11-03T16:08:46;2.32;59.38
71396;DHT22;59888;55.814;37.132;2022-11-03T16:11:12;2.36;59.38
71396;DHT22;59888;55.814;37.132;2022-11-03T16:13:38;2.39;59.32
71396;DHT22;59888;55.814;37.132;2022-11-03T16:16:04;2.36;59.32
71396;DHT22;59888;55.814;37.132;2022-11-03T16:18:30;2.38;59.23
71396;DHT22;59888;55.814;37.132;2022-11-03T16:20:55;2.37;59.24
71396;DHT22;59888;55.814;37.132;2022-11-03T16:23:21;2.28;59.29
71396;DHT22;59888;55.814;37.132;2022-11-03T16:25:47;2.26;59.39
71396;DHT22;59888;55.814;37.132;2022-11-03T16:28:13;2.25;59.41
71396;DHT22;59888;55.814;37.132;2022-11-03T16:30:39;2.23;59.43
71396;DHT22;59888;55.814;37.132;2022-11-03T16:33:05;2.32;59.52
71396;DHT22;59888;55.814;37.132;2022-11-03T16:35:32;2.49;59.33
71396;DHT22;59888;55.814;37.132;2022-11-03T16:37:58;2.56;59.12
71396;DHT22;59888;55.814;37.132;2022-11-03T16:40:24;2.62;59.06
71396;DHT22;59888;55.814;37.132;2022-11-03T16:42:49;2.49;58.75
71396;DHT22;59888;55.814;37.132;2022-11-03T16:45:18;2.39;58.96